Time;durP1;ratioP1;P1;durP2;ratioP2;P2;SDS_P1;SDS_P2;PMS_P1;PMS_P2;Temp;Humidity;BMP_temperature;BMP_pressure;BME280_temperature;BME280_humidity;BME280_pressure;Samples;Min_cycle;Max_cycle;Signal;HPM_P1;HPM_P2
2023/08/23 00:00:31;;;;;;;8.48;4.85;;;;;;;;;;5049576;28;20516;-69
2023/08/23 00:02:57;;;;;;;6.93;4.63;;;;;;;;;;5050566;28;20481;-70
2023/08/23 00:05:24;;;;;;;5.18;4.57;;;;;;;;;;5050470;28;20531;-71
2023/08/23 00:07:50;;;;;;;6.63;4.93;;;;;;;;;;5050434;28;20418;-69
2023/08/23 00:10:18;;;;;;;10.70;4.90;;;;;;;;;;5049496;28;20063;-72
2023/08/23 00:12:45;;;;;;;7.35;4.95;;;;;;;;;;5049881;28;20044;-71
2023/08/23 00:15:11;;;;;;;7.55;4.40;;;;;;;;;;5050487;28;20061;-72
2023/08/23 00:17:38;;;;;;;9.68;4.65;;;;;;;;;;5050211;28;20053;-72
2023/08/23 00:20:06;;;;;;;7.20;4.85;;;;;;;;;;5048248;28;20110;-69
2023/08/23 00:22:32;;;;;;;7.15;4.78;;;;;;;;;;5050348;28;20045;-74
2023/08/23 00:24:59;;;;;;;9.02;4.57;;;;;;;;;;5049882;28;20049;-70
2023/08/23 00:27:26;;;;;;;6.30;4.43;;;;;;;;;;5049937;28;20045;-70
2023/08/23 00:29:53;;;;;;;6.10;4.88;;;;;;;;;;5048952;28;20045;-70
2023/08/23 00:32:20;;;;;;;6.53;4.82;;;;;;;;;;5050082;28;20396;-69
2023/08/23 00:34:47;;;;;;;5.85;4.50;;;;;;;;;;5049619;28;20052;-72
2023/08/23 00:37:13;;;;;;;8.65;5.32;;;;;;;;;;5049807;28;20045;-69
2023/08/23 00:39:40;;;;;;;8.45;4.53;;;;;;;;;;5048623;28;20041;-70
2023/08/23 00:42:06;;;;;;;6.55;5.00;;;;;;;;;;5049779;28;20487;-69
2023/08/23 00:44:34;;;;;;;9.10;5.20;;;;;;;;;;5049980;28;20060;-70
2023/08/23 00:47:01;;;;;;;5.15;4.45;;;;;;;;;;5050242;28;20045;-72
2023/08/23 00:49:33;;;;;;;6.38;5.05;;;;;;;;;;5049298;28;20049;-71
2023/08/23 00:52:00;;;;;;;;;;;;;;;;;;5050486;28;20049;-70
2023/08/23 00:54:27;;;;;;;5.65;4.13;;;;;;;;;;5049561;28;19921;-71
2023/08/23 00:56:55;;;;;;;6.35;4.38;;;;;;;;;;5049406;28;20052;-72
2023/08/23 00:59:22;;;;;;;6.50;5.45;;;;;;;;;;5049889;28;20048;-69
2023/08/23 01:01:50;;;;;;;9.45;5.45;;;;;;;;;;5048775;28;20041;-69
2023/08/23 01:04:17;;;;;;;8.77;4.97;;;;;;;;;;5049771;28;20056;-69
2023/08/23 01:06:55;;;;;;;6.40;5.20;;;;;;;;;;5049405;28;20041;-72
2023/08/23 01:09:35;;;;;;;7.82;5.45;;;;;;;;;;5049784;28;20060;-72
2023/08/23 01:12:08;;;;;;;5.32;4.80;;;;;;;;;;5049570;28;20055;-71
2023/08/23 01:14:44;;;;;;;8.60;4.80;;;;;;;;;;5050067;28;20053;-70
2023/08/23 01:17:13;;;;;;;6.88;4.30;;;;;;;;;;5049217;28;20103;-70
2023/08/23 01:19:45;;;;;;;6.03;4.45;;;;;;;;;;5048622;28;20049;-70
2023/08/23 01:22:14;;;;;;;7.13;5.15;;;;;;;;;;5049335;28;20045;-69
2023/08/23 01:24:42;;;;;;;6.15;5.10;;;;;;;;;;5049842;28;20049;-70
2023/08/23 01:27:09;;;;;;;9.05;4.70;;;;;;;;;;5049231;28;20045;-70
2023/08/23 01:29:35;;;;;;;8.20;5.05;;;;;;;;;;5048915;28;20041;-69
2023/08/23 01:32:12;;;;;;;7.35;4.95;;;;;;;;;;5050345;28;20134;-70
2023/08/23 01:34:44;;;;;;;8.32;5.50;;;;;;;;;;5053241;28;20521;-71
2023/08/23 01:37:11;;;;;;;6.47;4.82;;;;;;;;;;5052912;28;20051;-70
2023/08/23 01:39:38;;;;;;;7.50;5.20;;;;;;;;;;5052662;28;20049;-69
2023/08/23 01:42:07;;;;;;;7.93;5.40;;;;;;;;;;5052707;28;20040;-69
2023/08/23 01:44:33;;;;;;;9.48;5.50;;;;;;;;;;5052925;28;20053;-68
2023/08/23 01:47:00;;;;;;;10.73;6.30;;;;;;;;;;5053011;28;20051;-72
2023/08/23 01:49:26;;;;;;;7.03;5.35;;;;;;;;;;5052849;28;20049;-73
2023/08/23 01:51:53;;;;;;;7.18;6.10;;;;;;;;;;5052713;28;20410;-70
2023/08/23 01:54:19;;;;;;;7.07;5.43;;;;;;;;;;5052452;28;20637;-72
2023/08/23 01:56:46;;;;;;;6.68;5.95;;;;;;;;;;5052946;28;20481;-70
2023/08/23 01:59:14;;;;;;;6.80;5.47;;;;;;;;;;5052390;28;20475;-73
2023/08/23 02:01:40;;;;;;;5.85;5.25;;;;;;;;;;5052358;28;20056;-69
2023/08/23 02:04:07;;;;;;;8.48;6.00;;;;;;;;;;5052587;28;20521;-70
2023/08/23 02:06:33;;;;;;;7.75;5.55;;;;;;;;;;5052809;28;20422;-74
2023/08/23 02:09:00;;;;;;;7.53;5.68;;;;;;;;;;5051959;28;20051;-70
2023/08/23 02:11:27;;;;;;;8.10;5.57;;;;;;;;;;5051726;28;20504;-70
2023/08/23 02:13:53;;;;;;;9.73;5.40;;;;;;;;;;5052188;28;20297;-69
2023/08/23 02:16:21;;;;;;;6.72;5.43;;;;;;;;;;5052798;28;20051;-72
2023/08/23 02:18:47;;;;;;;8.60;5.75;;;;;;;;;;5052290;28;20041;-73
2023/08/23 02:21:14;;;;;;;6.63;5.07;;;;;;;;;;5052008;28;20045;-70
2023/08/23 02:23:41;;;;;;;7.20;5.18;;;;;;;;;;5052460;28;20516;-70
2023/08/23 02:26:07;;;;;;;9.77;5.78;;;;;;;;;;5052026;28;20045;-69
2023/08/23 02:28:34;;;;;;;7.07;6.00;;;;;;;;;;5052663;28;20048;-73
2023/08/23 02:31:03;;;;;;;7.72;5.90;;;;;;;;;;5051144;28;20406;-70
2023/08/23 02:33:31;;;;;;;6.63;5.95;;;;;;;;;;5052209;28;20103;-72
2023/08/23 02:35:58;;;;;;;7.53;5.68;;;;;;;;;;5052153;28;20056;-70
2023/08/23 02:38:24;;;;;;;6.28;5.65;;;;;;;;;;5052046;28;20051;-70
2023/08/23 02:40:51;;;;;;;6.10;5.47;;;;;;;;;;5050805;28;20045;-70
2023/08/23 02:43:17;;;;;;;8.40;5.38;;;;;;;;;;5051452;28;20045;-72
2023/08/23 02:45:44;;;;;;;6.40;5.40;;;;;;;;;;5055176;28;20045;-70
2023/08/23 02:48:11;;;;;;;7.82;5.43;;;;;;;;;;5052220;28;20131;-70
2023/08/23 02:50:39;;;;;;;7.40;5.60;;;;;;;;;;5050954;28;20045;-72
2023/08/23 02:53:06;;;;;;;5.75;5.15;;;;;;;;;;5051720;28;20053;-71
2023/08/23 02:55:35;;;;;;;6.15;5.50;;;;;;;;;;5051067;28;20407;-70
2023/08/23 02:58:02;;;;;;;8.63;4.85;;;;;;;;;;5051869;28;20041;-70
2023/08/23 03:00:29;;;;;;;8.10;4.78;;;;;;;;;;5050690;28;20041;-71
2023/08/23 03:02:55;;;;;;;8.57;5.32;;;;;;;;;;5051450;28;20420;-70
2023/08/23 03:05:22;;;;;;;8.15;5.40;;;;;;;;;;5051700;28;20045;-70
2023/08/23 03:07:50;;;;;;;5.95;5.25;;;;;;;;;;5051076;28;20045;-70
2023/08/23 03:10:17;;;;;;;9.55;5.70;;;;;;;;;;5050989;28;20045;-69
2023/08/23 03:12:43;;;;;;;8.38;5.68;;;;;;;;;;5051221;28;20045;-72
2023/08/23 03:15:10;;;;;;;6.90;5.57;;;;;;;;;;5051553;28;20055;-70
2023/08/23 03:17:37;;;;;;;9.23;5.78;;;;;;;;;;5051359;28;20053;-70
2023/08/23 03:20:04;;;;;;;6.18;5.57;;;;;;;;;;5050565;28;20045;-73
2023/08/23 03:22:31;;;;;;;9.50;5.70;;;;;;;;;;5050845;28;20068;-69
2023/08/23 03:24:58;;;;;;;7.22;5.88;;;;;;;;;;5051775;28;20411;-70
2023/08/23 03:27:26;;;;;;;9.55;6.10;;;;;;;;;;5051128;28;20045;-69
2023/08/23 03:29:53;;;;;;;8.40;5.72;;;;;;;;;;5050769;28;20045;-69
2023/08/23 03:32:20;;;;;;;7.63;5.63;;;;;;;;;;5050160;28;20510;-72
2023/08/23 03:34:47;;;;;;;8.05;6.05;;;;;;;;;;5050914;28;20045;-70
2023/08/23 03:37:14;;;;;;;7.75;5.68;;;;;;;;;;5051236;28;20300;-72
2023/08/23 03:39:40;;;;;;;8.65;5.95;;;;;;;;;;5049789;28;20051;-71
2023/08/23 03:42:08;;;;;;;8.15;6.05;;;;;;;;;;5051212;28;20520;-70
2023/08/23 03:44:35;;;;;;;8.02;6.15;;;;;;;;;;5050754;28;20052;-70
2023/08/23 03:47:01;;;;;;;6.60;5.82;;;;;;;;;;5051072;28;20268;-70
2023/08/23 03:49:28;;;;;;;10.35;5.88;;;;;;;;;;5049731;28;20059;-71
2023/08/23 03:51:54;;;;;;;8.43;6.00;;;;;;;;;;5050378;28;20045;-72
2023/08/23 03:54:21;;;;;;;8.88;6.20;;;;;;;;;;5050501;28;20135;-71
2023/08/23 03:56:48;;;;;;;9.38;6.20;;;;;;;;;;5050904;28;20075;-70
2023/08/23 03:59:16;;;;;;;7.40;6.65;;;;;;;;;;5050239;28;20052;-72
2023/08/23 04:01:43;;;;;;;9.25;6.07;;;;;;;;;;5049766;28;20259;-69
2023/08/23 04:04:10;;;;;;;9.55;6.55;;;;;;;;;;5050040;28;20099;-70
2023/08/23 04:06:36;;;;;;;9.90;6.97;;;;;;;;;;5050863;28;20044;-70
2023/08/23 04:09:03;;;;;;;6.85;5.72;;;;;;;;;;5050249;28;20118;-71
2023/08/23 04:11:29;;;;;;;7.63;6.07;;;;;;;;;;5049884;28;20055;-69
2023/08/23 04:13:56;;;;;;;8.50;6.20;;;;;;;;;;5050491;28;20045;-70
2023/08/23 04:16:24;;;;;;;12.13;6.35;;;;;;;;;;5050281;28;20506;-70
2023/08/23 04:18:51;;;;;;;9.43;5.65;;;;;;;;;;5062148;22;20505;-69
2023/08/23 04:21:17;;;;;;;10.00;5.72;;;;;;;;;;5049039;28;20045;-70
2023/08/23 04:23:44;;;;;;;12.75;6.78;;;;;;;;;;5050557;28;20437;-71
2023/08/23 04:26:10;;;;;;;7.22;5.95;;;;;;;;;;5049692;28;20049;-70
2023/08/23 04:28:38;;;;;;;11.07;6.00;;;;;;;;;;5050266;28;20410;-71
2023/08/23 04:31:04;;;;;;;10.55;5.90;;;;;;;;;;5048900;28;20402;-71
2023/08/23 04:33:34;;;;;;;7.05;5.97;;;;;;;;;;5050654;28;20045;-70
2023/08/23 04:36:01;;;;;;;7.03;6.00;;;;;;;;;;5049918;28;20502;-69
2023/08/23 04:38:28;;;;;;;9.40;6.35;;;;;;;;;;5050319;28;20051;-71
2023/08/23 04:41:00;;;;;;;9.38;6.38;;;;;;;;;;5048757;28;20052;-71
2023/08/23 04:43:26;;;;;;;7.73;5.93;;;;;;;;;;5050006;28;20060;-71
2023/08/23 04:45:54;;;;;;;7.47;6.20;;;;;;;;;;5049603;28;20296;-71
2023/08/23 04:48:20;;;;;;;7.82;6.65;;;;;;;;;;5050130;28;20045;-71
2023/08/23 04:50:52;;;;;;;9.27;6.75;;;;;;;;;;5048704;28;20049;-70
2023/08/23 04:53:19;;;;;;;7.13;6.40;;;;;;;;;;5049986;28;20055;-71
2023/08/23 04:55:45;;;;;;;9.07;6.50;;;;;;;;;;5049751;28;20051;-71
2023/08/23 04:58:12;;;;;;;8.32;6.75;;;;;;;;;;5049183;28;20045;-71
2023/08/23 05:00:39;;;;;;;7.38;6.45;;;;;;;;;;5048993;28;20044;-71
2023/08/23 05:03:06;;;;;;;8.15;7.22;;;;;;;;;;5049516;28;20132;-71
2023/08/23 05:05:32;;;;;;;8.20;7.30;;;;;;;;;;5049687;28;20045;-71
2023/08/23 05:08:00;;;;;;;8.88;7.07;;;;;;;;;;5052709;28;20044;-71
2023/08/23 05:10:27;;;;;;;7.70;7.00;;;;;;;;;;5052759;28;20049;-71
2023/08/23 05:12:55;;;;;;;9.02;6.93;;;;;;;;;;5052947;28;20144;-71
2023/08/23 05:15:22;;;;;;;10.70;7.13;;;;;;;;;;5053393;28;20051;-71
2023/08/23 05:17:49;;;;;;;7.30;6.53;;;;;;;;;;5053026;28;20047;-71
2023/08/23 05:20:17;;;;;;;7.97;7.15;;;;;;;;;;5052306;28;20490;-70
2023/08/23 05:22:44;;;;;;;10.18;6.78;;;;;;;;;;5053101;28;20055;-71
2023/08/23 05:25:12;;;;;;;9.57;7.00;;;;;;;;;;5053335;28;20053;-71
2023/08/23 05:27:38;;;;;;;11.80;7.25;;;;;;;;;;5052913;28;20051;-71
2023/08/23 05:30:06;;;;;;;7.45;6.65;;;;;;;;;;5052064;28;20040;-71
2023/08/23 05:32:33;;;;;;;12.18;7.47;;;;;;;;;;5053384;28;20127;-71
2023/08/23 05:34:59;;;;;;;11.38;6.38;;;;;;;;;;5052964;28;20147;-70
2023/08/23 05:37:26;;;;;;;10.48;6.90;;;;;;;;;;5053448;28;20409;-71
2023/08/23 05:39:52;;;;;;;11.38;6.13;;;;;;;;;;5051863;28;20041;-71
2023/08/23 05:42:20;;;;;;;9.73;6.43;;;;;;;;;;5053366;28;20128;-71
2023/08/23 05:44:47;;;;;;;6.70;6.00;;;;;;;;;;5052778;28;20051;-71
2023/08/23 05:47:13;;;;;;;16.63;6.45;;;;;;;;;;5053252;28;20055;-71
2023/08/23 05:49:42;;;;;;;8.93;7.10;;;;;;;;;;5053427;28;20053;-71
2023/08/23 05:52:09;;;;;;;14.50;8.63;;;;;;;;;;5053732;28;20057;-72
2023/08/23 05:54:34;;;;;;;14.98;9.82;;;;;;;;;;5053397;28;20490;-71
2023/08/23 05:57:01;;;;;;;17.58;10.48;;;;;;;;;;5053623;28;20049;-71
2023/08/23 05:59:29;;;;;;;12.32;9.30;;;;;;;;;;5052031;28;20080;-71
2023/08/23 06:01:56;;;;;;;12.00;9.50;;;;;;;;;;5052439;28;20054;-71
2023/08/23 06:04:22;;;;;;;14.00;10.38;;;;;;;;;;5052674;28;20055;-71
2023/08/23 06:06:49;;;;;;;10.75;9.65;;;;;;;;;;5052859;28;20048;-71
2023/08/23 06:09:18;;;;;;;14.13;10.20;;;;;;;;;;5052539;28;20059;-71
2023/08/23 06:11:45;;;;;;;11.15;9.23;;;;;;;;;;5051543;28;20047;-71
2023/08/23 06:14:19;;;;;;;11.52;10.00;;;;;;;;;;5052460;28;20143;-71
2023/08/23 06:16:47;;;;;;;13.38;9.55;;;;;;;;;;5051914;28;20052;-71
2023/08/23 06:19:13;;;;;;;12.38;9.57;;;;;;;;;;5051040;28;20053;-71
2023/08/23 06:21:41;;;;;;;15.38;11.13;;;;;;;;;;5050785;28;20052;-71
2023/08/23 06:24:08;;;;;;;14.07;11.10;;;;;;;;;;5052621;28;20049;-71
2023/08/23 06:26:34;;;;;;;16.17;12.05;;;;;;;;;;5052016;28;20059;-71
2023/08/23 06:29:01;;;;;;;15.02;11.80;;;;;;;;;;5052236;28;20467;-71
2023/08/23 06:31:27;;;;;;;15.57;11.75;;;;;;;;;;5051181;28;20409;-71
2023/08/23 06:33:55;;;;;;;15.18;11.32;;;;;;;;;;5052589;28;20049;-71
2023/08/23 06:36:22;;;;;;;14.73;11.20;;;;;;;;;;5051531;28;20049;-70
2023/08/23 06:38:48;;;;;;;12.07;9.80;;;;;;;;;;5052278;28;20045;-71
2023/08/23 06:41:15;;;;;;;13.75;9.82;;;;;;;;;;5050998;28;20049;-71
2023/08/23 06:43:42;;;;;;;11.48;9.35;;;;;;;;;;5052288;28;20083;-71
2023/08/23 06:46:08;;;;;;;11.55;9.25;;;;;;;;;;5052302;28;20048;-71
2023/08/23 06:48:35;;;;;;;10.18;9.13;;;;;;;;;;5052178;28;20099;-71
2023/08/23 06:51:03;;;;;;;12.38;8.75;;;;;;;;;;5051191;28;20381;-71
2023/08/23 06:53:31;;;;;;;10.45;9.05;;;;;;;;;;5051634;28;20562;-71
2023/08/23 06:55:58;;;;;;;9.43;8.00;;;;;;;;;;5051980;28;20149;-71
2023/08/23 06:58:24;;;;;;;8.75;7.75;;;;;;;;;;5051150;28;20049;-71
2023/08/23 07:00:51;;;;;;;13.20;8.15;;;;;;;;;;5050814;28;20064;-71
2023/08/23 07:03:17;;;;;;;11.25;8.00;;;;;;;;;;5050680;28;20053;-71
2023/08/23 07:05:44;;;;;;;10.40;8.55;;;;;;;;;;5051561;28;20052;-70
2023/08/23 07:08:12;;;;;;;9.98;7.25;;;;;;;;;;5050977;28;20045;-71
2023/08/23 07:10:39;;;;;;;12.07;7.80;;;;;;;;;;5051241;28;20053;-70
2023/08/23 07:13:05;;;;;;;13.88;8.20;;;;;;;;;;5050730;28;20418;-71
2023/08/23 07:15:32;;;;;;;11.88;7.80;;;;;;;;;;5051081;28;20518;-70
2023/08/23 07:17:58;;;;;;;11.73;8.02;;;;;;;;;;5050562;28;20546;-70
2023/08/23 07:20:25;;;;;;;9.25;7.40;;;;;;;;;;5050236;28;20132;-70
2023/08/23 07:22:51;;;;;;;10.95;8.05;;;;;;;;;;5050999;28;20051;-70
2023/08/23 07:25:20;;;;;;;12.43;8.45;;;;;;;;;;5051311;28;20056;-70
2023/08/23 07:27:46;;;;;;;14.25;9.02;;;;;;;;;;5050959;28;20048;-71
2023/08/23 07:30:14;;;;;;;11.90;8.25;;;;;;;;;;5049350;28;20517;-70
2023/08/23 07:32:40;;;;;;;11.30;8.93;;;;;;;;;;5050970;28;20055;-70
2023/08/23 07:35:07;;;;;;;10.70;8.80;;;;;;;;;;5050409;28;20048;-70
2023/08/23 07:37:34;;;;;;;11.07;8.65;;;;;;;;;;5050953;28;20083;-70
2023/08/23 07:40:01;;;;;;;12.00;8.63;;;;;;;;;;5050070;28;20045;-71
2023/08/23 07:42:29;;;;;;;9.85;7.88;;;;;;;;;;5050491;28;20053;-71
2023/08/23 07:44:55;;;;;;;8.88;7.47;;;;;;;;;;5050598;28;20045;-71
2023/08/23 07:47:22;;;;;;;7.97;7.18;;;;;;;;;;5051358;28;20433;-71
2023/08/23 07:49:49;;;;;;;9.27;6.68;;;;;;;;;;5049946;28;20045;-71
2023/08/23 07:52:15;;;;;;;14.18;7.00;;;;;;;;;;5051094;28;20517;-70
2023/08/23 07:54:42;;;;;;;10.52;6.05;;;;;;;;;;5050774;28;20045;-71
2023/08/23 07:57:09;;;;;;;11.65;7.00;;;;;;;;;;5050526;28;20045;-71
2023/08/23 07:59:37;;;;;;;8.25;6.35;;;;;;;;;;5050013;28;20151;-71
2023/08/23 08:02:03;;;;;;;16.77;6.75;;;;;;;;;;5050226;28;20044;-71
2023/08/23 08:04:31;;;;;;;9.95;6.53;;;;;;;;;;5049041;28;20055;-70
2023/08/23 08:06:58;;;;;;;11.88;6.03;;;;;;;;;;5049772;28;20059;-71
2023/08/23 08:09:24;;;;;;;10.82;5.75;;;;;;;;;;5046581;28;20045;-70
2023/08/23 08:11:51;;;;;;;8.98;4.88;;;;;;;;;;5048885;28;20049;-70
2023/08/23 08:14:18;;;;;;;7.53;5.20;;;;;;;;;;5049811;28;20143;-70
2023/08/23 08:16:46;;;;;;;8.75;4.70;;;;;;;;;;5049738;28;20047;-70
2023/08/23 08:19:12;;;;;;;7.70;4.80;;;;;;;;;;5050050;28;20406;-70
2023/08/23 08:21:40;;;;;;;6.78;4.38;;;;;;;;;;5048562;28;20504;-71
2023/08/23 08:24:07;;;;;;;7.28;4.60;;;;;;;;;;5050054;28;20045;-71
2023/08/23 08:26:33;;;;;;;12.15;4.55;;;;;;;;;;5061113;28;20053;-71
2023/08/23 08:29:00;;;;;;;6.78;4.60;;;;;;;;;;5069719;28;20059;-70
2023/08/23 08:31:26;;;;;;;8.23;4.60;;;;;;;;;;5061303;28;20483;-71
2023/08/23 08:33:56;;;;;;;7.15;4.75;;;;;;;;;;5049383;28;20071;-71
2023/08/23 08:36:23;;;;;;;7.75;4.43;;;;;;;;;;5049497;28;20483;-70
2023/08/23 08:38:49;;;;;;;5.72;5.03;;;;;;;;;;5048022;28;20131;-71
2023/08/23 08:41:16;;;;;;;8.90;4.15;;;;;;;;;;5042610;28;20071;-71
2023/08/23 08:43:43;;;;;;;9.68;4.55;;;;;;;;;;5049284;28;20041;-70
2023/08/23 08:46:10;;;;;;;6.47;3.97;;;;;;;;;;5049530;28;20045;-71
2023/08/23 08:48:37;;;;;;;8.10;4.00;;;;;;;;;;5049184;28;20045;-71
2023/08/23 08:51:10;;;;;;;7.85;4.45;;;;;;;;;;5048581;28;20566;-71
2023/08/23 08:53:37;;;;;;;12.55;4.35;;;;;;;;;;5049655;28;20084;-70
2023/08/23 08:56:05;;;;;;;6.65;3.85;;;;;;;;;;5043674;28;20049;-71
2023/08/23 08:58:33;;;;;;;6.57;4.57;;;;;;;;;;5049559;28;20379;-71
2023/08/23 09:01:02;;;;;;;6.70;4.50;;;;;;;;;;5046712;28;20047;-70
2023/08/23 09:03:30;;;;;;;6.65;3.80;;;;;;;;;;5049563;28;20060;-71
2023/08/23 09:05:57;;;;;;;7.90;4.13;;;;;;;;;;5049483;28;20055;-70
2023/08/23 09:08:25;;;;;;;8.07;4.25;;;;;;;;;;5049165;28;20049;-71
2023/08/23 09:10:52;;;;;;;5.50;4.32;;;;;;;;;;5048052;28;20053;-70
2023/08/23 09:13:19;;;;;;;6.78;4.13;;;;;;;;;;5049450;28;20045;-70
2023/08/23 09:15:47;;;;;;;6.88;3.65;;;;;;;;;;5049201;28;20145;-71
2023/08/23 09:18:13;;;;;;;5.97;3.55;;;;;;;;;;5049036;28;20055;-71
2023/08/23 09:20:43;;;;;;;5.78;3.80;;;;;;;;;;5048310;28;20045;-70
2023/08/23 09:23:09;;;;;;;9.77;3.88;;;;;;;;;;5049060;28;20418;-71
2023/08/23 09:25:37;;;;;;;6.75;3.90;;;;;;;;;;5048777;28;20479;-71
2023/08/23 09:28:04;;;;;;;7.10;3.67;;;;;;;;;;5048993;28;20049;-71
2023/08/23 09:30:33;;;;;;;7.88;3.63;;;;;;;;;;5047058;28;20060;-71
2023/08/23 09:32:59;;;;;;;6.60;3.47;;;;;;;;;;5048697;28;20053;-71
2023/08/23 09:35:26;;;;;;;5.65;2.83;;;;;;;;;;5048754;28;20044;-71
2023/08/23 09:37:52;;;;;;;6.80;3.03;;;;;;;;;;5048929;28;20045;-71
2023/08/23 09:40:20;;;;;;;5.93;3.08;;;;;;;;;;5048408;28;20049;-71
2023/08/23 09:42:49;;;;;;;8.88;3.17;;;;;;;;;;5048449;28;20049;-70
2023/08/23 09:45:18;;;;;;;6.78;2.80;;;;;;;;;;5048561;28;20414;-71
2023/08/23 09:47:50;;;;;;;5.30;2.50;;;;;;;;;;5049258;28;20049;-71
2023/08/23 09:50:18;;;;;;;6.07;2.53;;;;;;;;;;5047966;28;20045;-71
2023/08/23 09:52:45;;;;;;;4.35;2.50;;;;;;;;;;5050127;28;20060;-70
2023/08/23 09:55:12;;;;;;;4.90;2.50;;;;;;;;;;5051345;28;20490;-69
2023/08/23 09:57:39;;;;;;;3.35;2.20;;;;;;;;;;5072832;28;20303;-71
2023/08/23 10:00:10;;;;;;;4.18;2.03;;;;;;;;;;5071432;28;20041;-70
2023/08/23 10:02:39;;;;;;;4.60;2.03;;;;;;;;;;5072837;28;20063;-70
2023/08/23 10:05:07;;;;;;;5.55;1.88;;;;;;;;;;5072345;28;20059;-70
2023/08/23 10:07:34;;;;;;;5.07;2.97;;;;;;;;;;5072795;28;20045;-69
2023/08/23 10:10:01;;;;;;;3.67;1.67;;;;;;;;;;5071809;28;20048;-69
2023/08/23 10:12:29;;;;;;;3.38;2.00;;;;;;;;;;5072621;28;20509;-70
2023/08/23 10:14:58;;;;;;;3.55;1.90;;;;;;;;;;5071980;28;20461;-69
2023/08/23 10:17:27;;;;;;;3.65;1.92;;;;;;;;;;5072745;28;20502;-70
2023/08/23 10:19:54;;;;;;;3.72;1.73;;;;;;;;;;5084365;22;20428;-64
2023/08/23 10:22:20;;;;;;;3.45;2.03;;;;;;;;;;5072363;28;20048;-65
2023/08/23 10:24:48;;;;;;;3.60;1.70;;;;;;;;;;5072832;28;20053;-65
2023/08/23 10:27:16;;;;;;;5.30;2.35;;;;;;;;;;5072286;28;20044;-65
2023/08/23 10:29:42;;;;;;;4.45;1.80;;;;;;;;;;5072323;28;20127;-65
2023/08/23 10:32:10;;;;;;;2.88;2.00;;;;;;;;;;5072378;28;20109;-66
2023/08/23 10:34:40;;;;;;;2.67;1.77;;;;;;;;;;5072816;28;20044;-65
2023/08/23 10:37:16;;;;;;;3.15;2.05;;;;;;;;;;5072649;28;20041;-65
2023/08/23 10:39:49;;;;;;;3.88;1.98;;;;;;;;;;5072536;28;20045;-66
2023/08/23 10:42:16;;;;;;;4.10;1.80;;;;;;;;;;5072015;28;20048;-65
2023/08/23 10:44:47;;;;;;;3.47;2.42;;;;;;;;;;5072560;28;20117;-65
2023/08/23 10:47:16;;;;;;;5.57;2.40;;;;;;;;;;5072181;28;20055;-65
2023/08/23 10:49:45;;;;;;;5.00;2.38;;;;;;;;;;5072162;28;20049;-66
2023/08/23 10:52:12;;;;;;;3.53;2.38;;;;;;;;;;5072016;28;20048;-66
2023/08/23 10:54:40;;;;;;;2.95;2.00;;;;;;;;;;5072164;28;20409;-64
2023/08/23 10:57:07;;;;;;;2.67;2.25;;;;;;;;;;5071344;28;20055;-63
2023/08/23 10:59:33;;;;;;;4.35;2.20;;;;;;;;;;5071712;28;20040;-65
2023/08/23 11:02:01;;;;;;;3.65;2.17;;;;;;;;;;5071981;28;20497;-65
2023/08/23 11:04:28;;;;;;;7.20;2.33;;;;;;;;;;5071233;28;20049;-65
2023/08/23 11:06:57;;;;;;;2.63;2.10;;;;;;;;;;5071911;28;20052;-65
2023/08/23 11:09:23;;;;;;;4.18;2.22;;;;;;;;;;5071882;28;20051;-65
2023/08/23 11:11:50;;;;;;;2.85;2.08;;;;;;;;;;5071970;28;20044;-66
2023/08/23 11:14:17;;;;;;;3.95;2.50;;;;;;;;;;5071590;28;20041;-65
2023/08/23 11:16:44;;;;;;;5.07;2.17;;;;;;;;;;5071945;28;20048;-64
2023/08/23 11:19:11;;;;;;;2.92;1.92;;;;;;;;;;5071413;28;20045;-66
2023/08/23 11:21:39;;;;;;;3.15;1.80;;;;;;;;;;5073029;28;20068;-65
2023/08/23 11:24:07;;;;;;;6.68;2.40;;;;;;;;;;5071270;28;20048;-65
2023/08/23 11:26:34;;;;;;;6.03;2.20;;;;;;;;;;5071728;28;20406;-65
2023/08/23 11:29:01;;;;;;;4.03;2.45;;;;;;;;;;5071226;28;20517;-65
2023/08/23 11:31:29;;;;;;;2.10;1.90;;;;;;;;;;5071713;28;20490;-64
2023/08/23 11:33:56;;;;;;;2.35;1.90;;;;;;;;;;5070934;28;20040;-65
2023/08/23 11:36:23;;;;;;;2.13;1.80;;;;;;;;;;5071572;28;20502;-64
2023/08/23 11:38:50;;;;;;;2.97;1.85;;;;;;;;;;5071312;28;20493;-65
2023/08/23 11:41:28;;;;;;;2.50;1.80;;;;;;;;;;5071654;28;20688;-65
2023/08/23 11:43:55;;;;;;;3.72;2.00;;;;;;;;;;5071365;28;20109;-65
2023/08/23 11:46:22;;;;;;;4.15;1.60;;;;;;;;;;5070792;28;20425;-65
2023/08/23 11:48:49;;;;;;;2.90;1.80;;;;;;;;;;5071669;28;20494;-64
2023/08/23 11:51:16;;;;;;;2.17;1.73;;;;;;;;;;5070651;28;20040;-65
2023/08/23 11:53:50;;;;;;;3.25;1.67;;;;;;;;;;5070884;28;20048;-64
2023/08/23 11:56:16;;;;;;;2.45;1.58;;;;;;;;;;5070850;28;20044;-65
2023/08/23 11:58:44;;;;;;;3.30;1.88;;;;;;;;;;5070968;28;20072;-64
2023/08/23 12:01:11;;;;;;;3.67;1.77;;;;;;;;;;5070615;28;20317;-65
2023/08/23 12:03:37;;;;;;;2.30;1.80;;;;;;;;;;5071250;28;20402;-65
2023/08/23 12:06:04;;;;;;;2.90;2.20;;;;;;;;;;5070570;28;20047;-66
2023/08/23 12:08:33;;;;;;;4.50;2.05;;;;;;;;;;5071084;28;20046;-66
2023/08/23 12:11:00;;;;;;;3.53;2.10;;;;;;;;;;5070785;28;20040;-65
2023/08/23 12:13:26;;;;;;;2.63;1.73;;;;;;;;;;5071174;28;20044;-66
2023/08/23 12:15:54;;;;;;;2.75;1.65;;;;;;;;;;5070171;28;20040;-64
2023/08/23 12:18:21;;;;;;;3.78;2.35;;;;;;;;;;5070869;28;20044;-65
2023/08/23 12:20:47;;;;;;;3.20;1.80;;;;;;;;;;5070662;28;20048;-63
2023/08/23 12:23:14;;;;;;;4.43;2.00;;;;;;;;;;5070566;28;20071;-65
2023/08/23 12:25:40;;;;;;;2.47;1.80;;;;;;;;;;5070871;28;20486;-65
2023/08/23 12:28:07;;;;;;;4.93;1.98;;;;;;;;;;5070156;28;20572;-65
2023/08/23 12:30:33;;;;;;;3.42;1.88;;;;;;;;;;5070351;28;20050;-65
2023/08/23 12:33:01;;;;;;;4.28;1.90;;;;;;;;;;5070325;28;20054;-65
2023/08/23 12:35:28;;;;;;;2.70;1.77;;;;;;;;;;5070336;28;20048;-66
2023/08/23 12:37:55;;;;;;;3.75;2.33;;;;;;;;;;5069888;28;20041;-65
2023/08/23 12:40:21;;;;;;;11.57;3.10;;;;;;;;;;5070727;28;20044;-65
2023/08/23 12:42:48;;;;;;;3.15;2.05;;;;;;;;;;5069843;28;20048;-64
2023/08/23 12:45:14;;;;;;;4.00;2.00;;;;;;;;;;5070603;28;20047;-64
2023/08/23 12:47:41;;;;;;;1.83;1.60;;;;;;;;;;5070203;28;20059;-65
2023/08/23 12:50:09;;;;;;;2.97;1.92;;;;;;;;;;5070326;28;20045;-65
2023/08/23 12:52:36;;;;;;;2.38;1.90;;;;;;;;;;5070081;28;20044;-65
2023/08/23 12:55:04;;;;;;;3.83;2.20;;;;;;;;;;5070373;28;20048;-64
2023/08/23 12:57:32;;;;;;;2.80;1.70;;;;;;;;;;5070256;28;20565;-64
2023/08/23 12:59:59;;;;;;;1.98;1.73;;;;;;;;;;5070319;28;20040;-65
2023/08/23 13:02:25;;;;;;;2.30;1.70;;;;;;;;;;5070417;28;20506;-66
2023/08/23 13:04:52;;;;;;;2.78;1.80;;;;;;;;;;5069658;28;20059;-65
2023/08/23 13:07:20;;;;;;;7.30;2.55;;;;;;;;;;5069990;28;20501;-62
2023/08/23 13:09:46;;;;;;;4.15;1.80;;;;;;;;;;5069364;28;20040;-64
2023/08/23 13:12:13;;;;;;;4.90;1.55;;;;;;;;;;5069863;28;20048;-63
2023/08/23 13:14:39;;;;;;;2.25;1.38;;;;;;;;;;5069496;28;20048;-64
2023/08/23 13:17:06;;;;;;;1.98;1.73;;;;;;;;;;5069901;28;20048;-65
2023/08/23 13:19:33;;;;;;;2.35;1.70;;;;;;;;;;5069364;28;20053;-63
2023/08/23 13:22:00;;;;;;;5.07;1.80;;;;;;;;;;5070440;28;20426;-64
2023/08/23 13:24:28;;;;;;;3.67;1.73;;;;;;;;;;5070122;28;20052;-65
2023/08/23 13:26:55;;;;;;;2.97;1.48;;;;;;;;;;5070205;28;20045;-64
2023/08/23 13:29:21;;;;;;;2.75;1.50;;;;;;;;;;5073261;28;20052;-64
2023/08/23 13:31:48;;;;;;;2.20;1.55;;;;;;;;;;5074297;28;20132;-64
2023/08/23 13:34:14;;;;;;;3.08;1.88;;;;;;;;;;5073437;28;20073;-64
2023/08/23 13:36:41;;;;;;;2.88;1.70;;;;;;;;;;5073062;28;20417;-64
2023/08/23 13:39:07;;;;;;;3.67;1.60;;;;;;;;;;5073819;28;20044;-64
2023/08/23 13:41:35;;;;;;;2.25;1.40;;;;;;;;;;5073826;28;20052;-64
2023/08/23 13:44:02;;;;;;;2.20;1.50;;;;;;;;;;5073596;28;20542;-65
2023/08/23 13:46:29;;;;;;;7.65;1.75;;;;;;;;;;5073050;28;20104;-64
2023/08/23 13:48:56;;;;;;;4.32;1.52;;;;;;;;;;5073562;28;20051;-65
2023/08/23 13:51:22;;;;;;;2.50;1.58;;;;;;;;;;5073137;28;20070;-65
2023/08/23 13:53:49;;;;;;;1.50;1.40;;;;;;;;;;5073443;28;20044;-65
2023/08/23 13:56:16;;;;;;;2.67;1.60;;;;;;;;;;5072978;28;20067;-65
2023/08/23 13:58:44;;;;;;;1.88;1.50;;;;;;;;;;5072928;28;20048;-65
2023/08/23 14:01:10;;;;;;;5.35;1.67;;;;;;;;;;5072859;28;20040;-65
2023/08/23 14:03:37;;;;;;;2.00;1.40;;;;;;;;;;5072938;28;20044;-63
2023/08/23 14:06:05;;;;;;;3.53;1.95;;;;;;;;;;5072637;28;20050;-64
2023/08/23 14:08:31;;;;;;;2.47;1.50;;;;;;;;;;5072957;28;20512;-65
2023/08/23 14:10:58;;;;;;;3.53;1.58;;;;;;;;;;5073296;28;20496;-65
2023/08/23 14:13:25;;;;;;;4.43;1.77;;;;;;;;;;5072644;28;20063;-64
2023/08/23 14:15:55;;;;;;;2.25;1.40;;;;;;;;;;5073276;28;20068;-65
2023/08/23 14:18:21;;;;;;;5.17;1.80;;;;;;;;;;5072327;28;20440;-65
2023/08/23 14:20:48;;;;;;;1.73;1.48;;;;;;;;;;5073193;28;20273;-65
2023/08/23 14:23:14;;;;;;;3.25;1.67;;;;;;;;;;5072757;28;20049;-65
2023/08/23 14:25:41;;;;;;;3.17;1.60;;;;;;;;;;5073062;28;20048;-64
2023/08/23 14:28:08;;;;;;;3.60;1.60;;;;;;;;;;5073012;28;20058;-64
2023/08/23 14:30:36;;;;;;;3.88;1.50;;;;;;;;;;5073091;28;20051;-65
2023/08/23 14:33:04;;;;;;;3.97;1.88;;;;;;;;;;5072601;28;20044;-65
2023/08/23 14:35:31;;;;;;;5.03;1.80;;;;;;;;;;5072566;28;20053;-64
2023/08/23 14:37:57;;;;;;;3.60;1.73;;;;;;;;;;5072642;28;20041;-64
2023/08/23 14:40:24;;;;;;;2.72;1.67;;;;;;;;;;5071673;28;20066;-65